sensor_id;sensor_type;location;lat;lon;timestamp;P1;durP1;ratioP1;P2;durP2;ratioP2
36691;SDS011;22678;52.052;4.242;2022-07-01T00:01:16;15.38;;;8.50;;
36691;SDS011;22678;52.052;4.242;2022-07-01T00:03:41;16.77;;;8.38;;
36691;SDS011;22678;52.052;4.242;2022-07-01T00:06:13;14.35;;;8.50;;
36691;SDS011;22678;52.052;4.242;2022-07-01T00:08:39;16.58;;;9.95;;
36691;SDS011;22678;52.052;4.242;2022-07-01T00:11:04;14.30;;;9.02;;
36691;SDS011;22678;52.052;4.242;2022-07-01T00:13:29;15.77;;;9.63;;
36691;SDS011;22678;52.052;4.242;2022-07-01T00:15:54;16.23;;;10.35;;
36691;SDS011;22678;52.052;4.242;2022-07-01T00:18:20;14.48;;;9.38;;
36691;SDS011;22678;52.052;4.242;2022-07-01T00:20:46;14.60;;;8.57;;
36691;SDS011;22678;52.052;4.242;2022-07-01T00:23:11;12.55;;;7.85;;
36691;SDS011;22678;52.052;4.242;2022-07-01T00:25:38;14.93;;;9.07;;
36691;SDS011;22678;52.052;4.242;2022-07-01T00:28:04;17.58;;;8.77;;
36691;SDS011;22678;52.052;4.242;2022-07-01T00:30:29;15.60;;;9.63;;
36691;SDS011;22678;52.052;4.242;2022-07-01T00:32:55;16.90;;;9.20;;
36691;SDS011;22678;52.052;4.242;2022-07-01T00:35:20;12.90;;;8.40;;
36691;SDS011;22678;52.052;4.242;2022-07-01T00:37:46;13.90;;;8.35;;
36691;SDS011;22678;52.052;4.242;2022-07-01T00:40:11;13.77;;;8.48;;
36691;SDS011;22678;52.052;4.242;2022-07-01T00:42:40;17.45;;;9.57;;
36691;SDS011;22678;52.052;4.242;2022-07-01T00:45:07;12.48;;;8.32;;
36691;SDS011;22678;52.052;4.242;2022-07-01T00:47:34;12.73;;;9.10;;
36691;SDS011;22678;52.052;4.242;2022-07-01T00:50:05;14.02;;;8.25;;
36691;SDS011;22678;52.052;4.242;2022-07-01T00:52:32;16.10;;;8.48;;
36691;SDS011;22678;52.052;4.242;2022-07-01T00:54:58;11.95;;;7.45;;
36691;SDS011;22678;52.052;4.242;2022-07-01T00:57:29;14.18;;;9.20;;
36691;SDS011;22678;52.052;4.242;2022-07-01T00:59:56;17.05;;;8.40;;
36691;SDS011;22678;52.052;4.242;2022-07-01T01:02:21;15.82;;;9.35;;
36691;SDS011;22678;52.052;4.242;2022-07-01T01:04:47;14.65;;;8.57;;
36691;SDS011;22678;52.052;4.242;2022-07-01T01:07:12;16.67;;;9.45;;
36691;SDS011;22678;52.052;4.242;2022-07-01T01:09:38;11.68;;;7.55;;
36691;SDS011;22678;52.052;4.242;2022-07-01T01:12:04;12.07;;;8.27;;
36691;SDS011;22678;52.052;4.242;2022-07-01T01:14:29;12.80;;;7.05;;
36691;SDS011;22678;52.052;4.242;2022-07-01T01:16:55;13.50;;;9.02;;
36691;SDS011;22678;52.052;4.242;2022-07-01T01:19:20;12.93;;;7.60;;
36691;SDS011;22678;52.052;4.242;2022-07-01T01:21:46;12.95;;;6.65;;
36691;SDS011;22678;52.052;4.242;2022-07-01T01:24:11;10.38;;;6.93;;
36691;SDS011;22678;52.052;4.242;2022-07-01T01:26:37;10.38;;;6.82;;
36691;SDS011;22678;52.052;4.242;2022-07-01T01:29:03;9.63;;;6.15;;
36691;SDS011;22678;52.052;4.242;2022-07-01T01:31:30;13.65;;;7.10;;
36691;SDS011;22678;52.052;4.242;2022-07-01T01:34:00;11.07;;;6.22;;
36691;SDS011;22678;52.052;4.242;2022-07-01T01:36:26;14.68;;;6.18;;
36691;SDS011;22678;52.052;4.242;2022-07-01T01:38:52;15.73;;;6.82;;
36691;SDS011;22678;52.052;4.242;2022-07-01T01:41:20;12.95;;;7.47;;
36691;SDS011;22678;52.052;4.242;2022-07-01T01:43:45;8.95;;;5.68;;
36691;SDS011;22678;52.052;4.242;2022-07-01T01:46:12;11.30;;;5.88;;
36691;SDS011;22678;52.052;4.242;2022-07-01T01:48:37;11.65;;;6.80;;
36691;SDS011;22678;52.052;4.242;2022-07-01T01:51:02;15.57;;;6.10;;
36691;SDS011;22678;52.052;4.242;2022-07-01T01:53:28;13.05;;;6.60;;
36691;SDS011;22678;52.052;4.242;2022-07-01T01:55:53;12.18;;;6.20;;
36691;SDS011;22678;52.052;4.242;2022-07-01T01:58:18;13.95;;;6.57;;
36691;SDS011;22678;52.052;4.242;2022-07-01T02:00:44;11.32;;;5.88;;
36691;SDS011;22678;52.052;4.242;2022-07-01T02:03:09;8.25;;;5.00;;
36691;SDS011;22678;52.052;4.242;2022-07-01T02:05:34;9.48;;;5.45;;
36691;SDS011;22678;52.052;4.242;2022-07-01T02:08:01;7.00;;;4.43;;
36691;SDS011;22678;52.052;4.242;2022-07-01T02:10:27;9.48;;;4.32;;
36691;SDS011;22678;52.052;4.242;2022-07-01T02:12:52;14.23;;;5.88;;
36691;SDS011;22678;52.052;4.242;2022-07-01T02:15:18;14.32;;;4.88;;
36691;SDS011;22678;52.052;4.242;2022-07-01T02:17:43;9.40;;;4.43;;
36691;SDS011;22678;52.052;4.242;2022-07-01T02:20:08;10.63;;;3.92;;
36691;SDS011;22678;52.052;4.242;2022-07-01T02:22:34;6.38;;;4.85;;
36691;SDS011;22678;52.052;4.242;2022-07-01T02:24:59;12.98;;;8.00;;
36691;SDS011;22678;52.052;4.242;2022-07-01T02:27:25;8.68;;;4.60;;
36691;SDS011;22678;52.052;4.242;2022-07-01T02:29:50;6.22;;;3.67;;
36691;SDS011;22678;52.052;4.242;2022-07-01T02:32:15;10.18;;;4.50;;
36691;SDS011;22678;52.052;4.242;2022-07-01T02:34:41;9.50;;;4.60;;
36691;SDS011;22678;52.052;4.242;2022-07-01T02:37:06;12.40;;;3.83;;
36691;SDS011;22678;52.052;4.242;2022-07-01T02:39:34;7.18;;;3.80;;
36691;SDS011;22678;52.052;4.242;2022-07-01T02:42:00;6.60;;;3.40;;
36691;SDS011;22678;52.052;4.242;2022-07-01T02:44:44;9.68;;;4.03;;
36691;SDS011;22678;52.052;4.242;2022-07-01T02:47:09;7.88;;;4.35;;
36691;SDS011;22678;52.052;4.242;2022-07-01T02:49:34;8.57;;;2.92;;
36691;SDS011;22678;52.052;4.242;2022-07-01T02:52:00;6.00;;;3.50;;
36691;SDS011;22678;52.052;4.242;2022-07-01T02:54:25;9.95;;;3.47;;
36691;SDS011;22678;52.052;4.242;2022-07-01T02:56:50;13.80;;;3.75;;
36691;SDS011;22678;52.052;4.242;2022-07-01T02:59:15;8.65;;;4.25;;
36691;SDS011;22678;52.052;4.242;2022-07-01T03:01:41;9.85;;;5.18;;
36691;SDS011;22678;52.052;4.242;2022-07-01T03:04:06;10.35;;;4.30;;
36691;SDS011;22678;52.052;4.242;2022-07-01T03:06:31;9.00;;;3.47;;
36691;SDS011;22678;52.052;4.242;2022-07-01T03:08:57;7.90;;;3.78;;
36691;SDS011;22678;52.052;4.242;2022-07-01T03:11:23;10.40;;;4.03;;
36691;SDS011;22678;52.052;4.242;2022-07-01T03:13:48;6.60;;;3.53;;
36691;SDS011;22678;52.052;4.242;2022-07-01T03:16:13;8.35;;;3.70;;
36691;SDS011;22678;52.052;4.242;2022-07-01T03:18:39;7.55;;;4.15;;
36691;SDS011;22678;52.052;4.242;2022-07-01T03:21:05;7.63;;;4.25;;
36691;SDS011;22678;52.052;4.242;2022-07-01T03:23:30;14.32;;;4.53;;
36691;SDS011;22678;52.052;4.242;2022-07-01T03:25:56;7.68;;;3.22;;
36691;SDS011;22678;52.052;4.242;2022-07-01T03:28:21;13.82;;;4.38;;
36691;SDS011;22678;52.052;4.242;2022-07-01T03:30:46;13.27;;;3.83;;
36691;SDS011;22678;52.052;4.242;2022-07-01T03:33:11;8.27;;;4.65;;
36691;SDS011;22678;52.052;4.242;2022-07-01T03:35:37;6.68;;;3.70;;
36691;SDS011;22678;52.052;4.242;2022-07-01T03:38:04;6.10;;;3.10;;
36691;SDS011;22678;52.052;4.242;2022-07-01T03:40:30;8.25;;;3.63;;
36691;SDS011;22678;52.052;4.242;2022-07-01T03:42:59;7.13;;;3.08;;
36691;SDS011;22678;52.052;4.242;2022-07-01T03:45:25;9.38;;;3.33;;
36691;SDS011;22678;52.052;4.242;2022-07-01T03:47:51;9.05;;;3.00;;
36691;SDS011;22678;52.052;4.242;2022-07-01T03:50:17;7.88;;;3.53;;
36691;SDS011;22678;52.052;4.242;2022-07-01T03:52:43;10.23;;;5.57;;
36691;SDS011;22678;52.052;4.242;2022-07-01T03:55:11;10.18;;;3.97;;
36691;SDS011;22678;52.052;4.242;2022-07-01T03:57:37;7.85;;;4.10;;
36691;SDS011;22678;52.052;4.242;2022-07-01T04:00:04;11.38;;;3.65;;
36691;SDS011;22678;52.052;4.242;2022-07-01T04:02:31;9.07;;;3.70;;
36691;SDS011;22678;52.052;4.242;2022-07-01T04:04:57;11.68;;;3.97;;
36691;SDS011;22678;52.052;4.242;2022-07-01T04:07:22;10.35;;;3.22;;
36691;SDS011;22678;52.052;4.242;2022-07-01T04:09:48;12.35;;;2.90;;
36691;SDS011;22678;52.052;4.242;2022-07-01T04:12:14;6.78;;;3.45;;
36691;SDS011;22678;52.052;4.242;2022-07-01T04:14:39;8.15;;;3.42;;
36691;SDS011;22678;52.052;4.242;2022-07-01T04:17:05;5.57;;;3.42;;
36691;SDS011;22678;52.052;4.242;2022-07-01T04:19:30;7.35;;;3.25;;
36691;SDS011;22678;52.052;4.242;2022-07-01T04:21:56;8.50;;;2.75;;
36691;SDS011;22678;52.052;4.242;2022-07-01T04:24:40;6.07;;;3.28;;
36691;SDS011;22678;52.052;4.242;2022-07-01T04:27:05;13.23;;;4.20;;
36691;SDS011;22678;52.052;4.242;2022-07-01T04:29:31;13.27;;;3.67;;
36691;SDS011;22678;52.052;4.242;2022-07-01T04:31:56;9.50;;;3.53;;
36691;SDS011;22678;52.052;4.242;2022-07-01T04:34:22;6.70;;;2.47;;
36691;SDS011;22678;52.052;4.242;2022-07-01T04:36:48;12.48;;;3.78;;
36691;SDS011;22678;52.052;4.242;2022-07-01T04:39:14;6.95;;;3.17;;
36691;SDS011;22678;52.052;4.242;2022-07-01T04:41:39;11.60;;;4.20;;
36691;SDS011;22678;52.052;4.242;2022-07-01T04:44:24;8.85;;;3.60;;
36691;SDS011;22678;52.052;4.242;2022-07-01T04:46:50;9.85;;;2.97;;
36691;SDS011;22678;52.052;4.242;2022-07-01T04:49:15;6.97;;;2.72;;
36691;SDS011;22678;52.052;4.242;2022-07-01T04:51:41;11.55;;;3.55;;
36691;SDS011;22678;52.052;4.242;2022-07-01T04:54:06;9.10;;;3.75;;
36691;SDS011;22678;52.052;4.242;2022-07-01T04:56:32;8.48;;;3.05;;
36691;SDS011;22678;52.052;4.242;2022-07-01T04:58:58;13.95;;;4.18;;
36691;SDS011;22678;52.052;4.242;2022-07-01T05:01:24;8.30;;;2.28;;
36691;SDS011;22678;52.052;4.242;2022-07-01T05:03:50;6.50;;;3.58;;
36691;SDS011;22678;52.052;4.242;2022-07-01T05:06:15;7.88;;;2.95;;
36691;SDS011;22678;52.052;4.242;2022-07-01T05:08:41;13.27;;;3.13;;
36691;SDS011;22678;52.052;4.242;2022-07-01T05:11:06;10.00;;;3.00;;
36691;SDS011;22678;52.052;4.242;2022-07-01T05:13:32;10.95;;;3.30;;
36691;SDS011;22678;52.052;4.242;2022-07-01T05:15:58;12.38;;;2.78;;
36691;SDS011;22678;52.052;4.242;2022-07-01T05:18:24;9.45;;;2.78;;
36691;SDS011;22678;52.052;4.242;2022-07-01T05:21:08;10.63;;;3.40;;
36691;SDS011;22678;52.052;4.242;2022-07-01T05:23:52;7.95;;;2.90;;
36691;SDS011;22678;52.052;4.242;2022-07-01T05:26:17;7.13;;;2.42;;
36691;SDS011;22678;52.052;4.242;2022-07-01T05:28:45;8.18;;;2.50;;
36691;SDS011;22678;52.052;4.242;2022-07-01T05:31:11;8.32;;;3.38;;
36691;SDS011;22678;52.052;4.242;2022-07-01T05:33:37;12.32;;;2.63;;
36691;SDS011;22678;52.052;4.242;2022-07-01T05:36:03;8.52;;;1.75;;
36691;SDS011;22678;52.052;4.242;2022-07-01T05:38:28;8.32;;;3.83;;
36691;SDS011;22678;52.052;4.242;2022-07-01T05:40:53;9.00;;;1.70;;
36691;SDS011;22678;52.052;4.242;2022-07-01T05:43:19;8.13;;;2.85;;
36691;SDS011;22678;52.052;4.242;2022-07-01T05:45:45;10.25;;;1.77;;
36691;SDS011;22678;52.052;4.242;2022-07-01T05:48:10;8.50;;;1.67;;
36691;SDS011;22678;52.052;4.242;2022-07-01T05:50:36;8.55;;;3.42;;
36691;SDS011;22678;52.052;4.242;2022-07-01T05:53:01;7.53;;;2.53;;
36691;SDS011;22678;52.052;4.242;2022-07-01T05:55:27;7.53;;;2.15;;
36691;SDS011;22678;52.052;4.242;2022-07-01T05:57:53;12.45;;;3.10;;
36691;SDS011;22678;52.052;4.242;2022-07-01T06:00:18;11.65;;;2.80;;
36691;SDS011;22678;52.052;4.242;2022-07-01T06:02:43;11.55;;;2.10;;
36691;SDS011;22678;52.052;4.242;2022-07-01T06:05:09;8.20;;;2.53;;
36691;SDS011;22678;52.052;4.242;2022-07-01T06:07:34;12.05;;;3.55;;
36691;SDS011;22678;52.052;4.242;2022-07-01T06:09:59;8.23;;;2.83;;
36691;SDS011;22678;52.052;4.242;2022-07-01T06:12:25;7.47;;;2.25;;
36691;SDS011;22678;52.052;4.242;2022-07-01T06:14:50;7.15;;;2.47;;
36691;SDS011;22678;52.052;4.242;2022-07-01T06:17:16;9.40;;;2.58;;
36691;SDS011;22678;52.052;4.242;2022-07-01T06:19:41;11.98;;;2.70;;
36691;SDS011;22678;52.052;4.242;2022-07-01T06:22:07;12.45;;;3.85;;
36691;SDS011;22678;52.052;4.242;2022-07-01T06:24:33;18.45;;;4.00;;
36691;SDS011;22678;52.052;4.242;2022-07-01T06:26:59;5.75;;;2.38;;
36691;SDS011;22678;52.052;4.242;2022-07-01T06:29:25;12.55;;;3.15;;
36691;SDS011;22678;52.052;4.242;2022-07-01T06:31:52;8.55;;;2.00;;
36691;SDS011;22678;52.052;4.242;2022-07-01T06:34:18;13.10;;;2.58;;
36691;SDS011;22678;52.052;4.242;2022-07-01T06:36:43;6.10;;;2.45;;
36691;SDS011;22678;52.052;4.242;2022-07-01T06:39:08;8.90;;;2.22;;
36691;SDS011;22678;52.052;4.242;2022-07-01T06:41:33;8.27;;;1.88;;
36691;SDS011;22678;52.052;4.242;2022-07-01T06:43:59;9.93;;;2.83;;
36691;SDS011;22678;52.052;4.242;2022-07-01T06:46:25;6.47;;;2.83;;
36691;SDS011;22678;52.052;4.242;2022-07-01T06:48:51;6.68;;;2.40;;
36691;SDS011;22678;52.052;4.242;2022-07-01T06:51:17;9.57;;;2.00;;
36691;SDS011;22678;52.052;4.242;2022-07-01T06:53:42;14.88;;;2.25;;
36691;SDS011;22678;52.052;4.242;2022-07-01T06:56:10;10.88;;;2.13;;
36691;SDS011;22678;52.052;4.242;2022-07-01T06:58:35;6.03;;;1.88;;
36691;SDS011;22678;52.052;4.242;2022-07-01T07:01:01;13.45;;;2.85;;
36691;SDS011;22678;52.052;4.242;2022-07-01T07:03:26;9.32;;;2.40;;
36691;SDS011;22678;52.052;4.242;2022-07-01T07:05:52;18.02;;;3.67;;
36691;SDS011;22678;52.052;4.242;2022-07-01T07:08:18;6.75;;;1.77;;
36691;SDS011;22678;52.052;4.242;2022-07-01T07:10:43;10.85;;;1.75;;
36691;SDS011;22678;52.052;4.242;2022-07-01T07:13:09;9.32;;;3.33;;
36691;SDS011;22678;52.052;4.242;2022-07-01T07:15:36;14.15;;;2.03;;
36691;SDS011;22678;52.052;4.242;2022-07-01T07:18:01;12.18;;;1.35;;
36691;SDS011;22678;52.052;4.242;2022-07-01T07:20:27;5.53;;;1.20;;
36691;SDS011;22678;52.052;4.242;2022-07-01T07:22:53;5.65;;;0.60;;
36691;SDS011;22678;52.052;4.242;2022-07-01T07:25:18;8.95;;;0.85;;
36691;SDS011;22678;52.052;4.242;2022-07-01T07:27:44;9.82;;;2.47;;
36691;SDS011;22678;52.052;4.242;2022-07-01T07:30:12;12.35;;;1.95;;
36691;SDS011;22678;52.052;4.242;2022-07-01T07:32:38;14.30;;;1.42;;
36691;SDS011;22678;52.052;4.242;2022-07-01T07:35:04;8.63;;;1.30;;
36691;SDS011;22678;52.052;4.242;2022-07-01T07:37:30;12.48;;;2.13;;
36691;SDS011;22678;52.052;4.242;2022-07-01T07:39:57;6.82;;;1.63;;
36691;SDS011;22678;52.052;4.242;2022-07-01T07:42:23;8.18;;;1.98;;
36691;SDS011;22678;52.052;4.242;2022-07-01T07:44:48;2.05;;;0.93;;
36691;SDS011;22678;52.052;4.242;2022-07-01T07:47:13;6.60;;;1.30;;
36691;SDS011;22678;52.052;4.242;2022-07-01T07:49:38;11.38;;;1.13;;
36691;SDS011;22678;52.052;4.242;2022-07-01T07:52:04;8.63;;;1.20;;
36691;SDS011;22678;52.052;4.242;2022-07-01T07:54:29;7.43;;;1.42;;
36691;SDS011;22678;52.052;4.242;2022-07-01T07:56:55;9.85;;;1.45;;
36691;SDS011;22678;52.052;4.242;2022-07-01T07:59:20;4.15;;;0.68;;
36691;SDS011;22678;52.052;4.242;2022-07-01T08:01:45;11.73;;;1.90;;
36691;SDS011;22678;52.052;4.242;2022-07-01T08:04:11;10.05;;;3.33;;
36691;SDS011;22678;52.052;4.242;2022-07-01T08:06:36;6.90;;;1.38;;
36691;SDS011;22678;52.052;4.242;2022-07-01T08:09:02;7.32;;;1.60;;
36691;SDS011;22678;52.052;4.242;2022-07-01T08:11:28;5.78;;;1.58;;
36691;SDS011;22678;52.052;4.242;2022-07-01T08:13:53;7.05;;;1.35;;
36691;SDS011;22678;52.052;4.242;2022-07-01T08:16:18;6.53;;;0.70;;
36691;SDS011;22678;52.052;4.242;2022-07-01T08:18:44;4.38;;;0.95;;
36691;SDS011;22678;52.052;4.242;2022-07-01T08:21:09;7.43;;;0.85;;
36691;SDS011;22678;52.052;4.242;2022-07-01T08:23:34;7.20;;;0.68;;
36691;SDS011;22678;52.052;4.242;2022-07-01T08:26:00;5.25;;;2.13;;
36691;SDS011;22678;52.052;4.242;2022-07-01T08:28:25;12.60;;;1.02;;
36691;SDS011;22678;52.052;4.242;2022-07-01T08:30:51;5.95;;;0.60;;
36691;SDS011;22678;52.052;4.242;2022-07-01T08:33:16;7.75;;;0.50;;
36691;SDS011;22678;52.052;4.242;2022-07-01T08:35:41;1.40;;;0.40;;
36691;SDS011;22678;52.052;4.242;2022-07-01T08:38:07;8.77;;;1.02;;
36691;SDS011;22678;52.052;4.242;2022-07-01T08:40:33;4.63;;;1.48;;
36691;SDS011;22678;52.052;4.242;2022-07-01T08:42:59;3.55;;;0.47;;
36691;SDS011;22678;52.052;4.242;2022-07-01T08:45:32;4.63;;;0.70;;
36691;SDS011;22678;52.052;4.242;2022-07-01T08:48:02;4.47;;;0.57;;
36691;SDS011;22678;52.052;4.242;2022-07-01T08:50:29;4.90;;;0.63;;
36691;SDS011;22678;52.052;4.242;2022-07-01T08:52:56;5.95;;;0.30;;
36691;SDS011;22678;52.052;4.242;2022-07-01T08:55:22;6.10;;;0.50;;
36691;SDS011;22678;52.052;4.242;2022-07-01T08:57:49;8.93;;;2.05;;
36691;SDS011;22678;52.052;4.242;2022-07-01T09:00:15;3.38;;;0.50;;
36691;SDS011;22678;52.052;4.242;2022-07-01T09:05:26;11.48;;;0.98;;
36691;SDS011;22678;52.052;4.242;2022-07-01T09:07:59;4.10;;;0.50;;
36691;SDS011;22678;52.052;4.242;2022-07-01T09:10:27;1.10;;;0.50;;
36691;SDS011;22678;52.052;4.242;2022-07-01T09:12:53;5.47;;;0.28;;
36691;SDS011;22678;52.052;4.242;2022-07-01T09:15:30;2.45;;;0.25;;
36691;SDS011;22678;52.052;4.242;2022-07-01T09:17:57;2.90;;;0.20;;
36691;SDS011;22678;52.052;4.242;2022-07-01T09:20:30;1.10;;;0.20;;
36691;SDS011;22678;52.052;4.242;2022-07-01T09:23:01;4.38;;;0.55;;
36691;SDS011;22678;52.052;4.242;2022-07-01T09:25:30;5.07;;;0.43;;
36691;SDS011;22678;52.052;4.242;2022-07-01T09:28:06;2.35;;;1.20;;
36691;SDS011;22678;52.052;4.242;2022-07-01T09:30:33;2.45;;;0.77;;
36691;SDS011;22678;52.052;4.242;2022-07-01T09:33:06;5.43;;;0.73;;
36691;SDS011;22678;52.052;4.242;2022-07-01T09:35:33;5.28;;;0.95;;
36691;SDS011;22678;52.052;4.242;2022-07-01T09:37:59;8.10;;;1.45;;
36691;SDS011;22678;52.052;4.242;2022-07-01T09:40:25;6.65;;;1.10;;
36691;SDS011;22678;52.052;4.242;2022-07-01T09:42:50;7.80;;;0.73;;
36691;SDS011;22678;52.052;4.242;2022-07-01T09:45:15;4.82;;;0.30;;
36691;SDS011;22678;52.052;4.242;2022-07-01T09:47:41;3.45;;;0.50;;
36691;SDS011;22678;52.052;4.242;2022-07-01T09:50:08;2.95;;;0.30;;
36691;SDS011;22678;52.052;4.242;2022-07-01T09:52:34;3.05;;;0.75;;
36691;SDS011;22678;52.052;4.242;2022-07-01T09:55:00;3.85;;;1.13;;
36691;SDS011;22678;52.052;4.242;2022-07-01T09:57:26;9.70;;;0.35;;
36691;SDS011;22678;52.052;4.242;2022-07-01T09:59:51;7.63;;;0.75;;
36691;SDS011;22678;52.052;4.242;2022-07-01T10:02:18;5.18;;;0.63;;
36691;SDS011;22678;52.052;4.242;2022-07-01T10:04:54;10.30;;;1.13;;
36691;SDS011;22678;52.052;4.242;2022-07-01T10:07:39;7.90;;;0.70;;
36691;SDS011;22678;52.052;4.242;2022-07-01T10:10:27;6.82;;;1.67;;
36691;SDS011;22678;52.052;4.242;2022-07-01T10:13:23;3.60;;;0.40;;
36691;SDS011;22678;52.052;4.242;2022-07-01T10:15:52;13.38;;;1.85;;
36691;SDS011;22678;52.052;4.242;2022-07-01T10:18:19;11.85;;;2.35;;
36691;SDS011;22678;52.052;4.242;2022-07-01T10:20:47;6.18;;;1.63;;
36691;SDS011;22678;52.052;4.242;2022-07-01T10:23:13;5.15;;;0.93;;
36691;SDS011;22678;52.052;4.242;2022-07-01T10:25:42;6.00;;;1.05;;
36691;SDS011;22678;52.052;4.242;2022-07-01T10:44:19;6.22;;;1.42;;
36691;SDS011;22678;52.052;4.242;2022-07-01T10:49:17;7.35;;;1.38;;
36691;SDS011;22678;52.052;4.242;2022-07-01T10:51:56;5.45;;;1.65;;
36691;SDS011;22678;52.052;4.242;2022-07-01T10:59:50;6.22;;;0.30;;
36691;SDS011;22678;52.052;4.242;2022-07-01T11:02:22;3.15;;;0.25;;
36691;SDS011;22678;52.052;4.242;2022-07-01T11:04:51;5.53;;;0.37;;
36691;SDS011;22678;52.052;4.242;2022-07-01T11:07:18;3.97;;;1.33;;
36691;SDS011;22678;52.052;4.242;2022-07-01T11:09:43;3.53;;;0.70;;
36691;SDS011;22678;52.052;4.242;2022-07-01T11:12:09;4.30;;;1.10;;
36691;SDS011;22678;52.052;4.242;2022-07-01T11:14:38;9.50;;;0.60;;
36691;SDS011;22678;52.052;4.242;2022-07-01T11:17:05;1.80;;;0.30;;
36691;SDS011;22678;52.052;4.242;2022-07-01T11:19:32;4.43;;;0.70;;
36691;SDS011;22678;52.052;4.242;2022-07-01T11:21:58;4.18;;;0.30;;
36691;SDS011;22678;52.052;4.242;2022-07-01T11:24:24;2.58;;;0.30;;
36691;SDS011;22678;52.052;4.242;2022-07-01T11:26:50;2.80;;;0.30;;
36691;SDS011;22678;52.052;4.242;2022-07-01T11:29:25;3.65;;;0.30;;
36691;SDS011;22678;52.052;4.242;2022-07-01T11:31:53;8.65;;;2.17;;
36691;SDS011;22678;52.052;4.242;2022-07-01T11:34:19;9.88;;;1.10;;
36691;SDS011;22678;52.052;4.242;2022-07-01T11:36:46;6.57;;;2.15;;
36691;SDS011;22678;52.052;4.242;2022-07-01T11:39:30;4.00;;;0.40;;
36691;SDS011;22678;52.052;4.242;2022-07-01T11:42:01;3.20;;;1.73;;
36691;SDS011;22678;52.052;4.242;2022-07-01T11:47:12;6.15;;;1.42;;
36691;SDS011;22678;52.052;4.242;2022-07-01T11:49:48;3.65;;;0.47;;
36691;SDS011;22678;52.052;4.242;2022-07-01T11:52:15;6.10;;;0.47;;
36691;SDS011;22678;52.052;4.242;2022-07-01T11:54:43;4.43;;;0.40;;
36691;SDS011;22678;52.052;4.242;2022-07-01T11:57:11;4.60;;;0.30;;
36691;SDS011;22678;52.052;4.242;2022-07-01T11:59:38;1.77;;;0.30;;
36691;SDS011;22678;52.052;4.242;2022-07-01T12:02:05;4.13;;;0.70;;
36691;SDS011;22678;52.052;4.242;2022-07-01T12:04:31;3.20;;;0.30;;
36691;SDS011;22678;52.052;4.242;2022-07-01T12:06:57;3.88;;;0.50;;
36691;SDS011;22678;52.052;4.242;2022-07-01T12:09:24;2.38;;;0.30;;
36691;SDS011;22678;52.052;4.242;2022-07-01T12:11:51;4.95;;;1.25;;
36691;SDS011;22678;52.052;4.242;2022-07-01T12:14:23;2.08;;;0.20;;
36691;SDS011;22678;52.052;4.242;2022-07-01T12:17:00;4.63;;;0.22;;
36691;SDS011;22678;52.052;4.242;2022-07-01T12:19:41;2.95;;;0.28;;
36691;SDS011;22678;52.052;4.242;2022-07-01T12:22:10;1.20;;;0.10;;
36691;SDS011;22678;52.052;4.242;2022-07-01T12:24:36;3.72;;;0.32;;
36691;SDS011;22678;52.052;4.242;2022-07-01T12:27:03;9.57;;;1.00;;
36691;SDS011;22678;52.052;4.242;2022-07-01T12:29:52;3.53;;;1.33;;
36691;SDS011;22678;52.052;4.242;2022-07-01T12:32:25;6.75;;;0.40;;
36691;SDS011;22678;52.052;4.242;2022-07-01T12:34:55;4.00;;;0.50;;
36691;SDS011;22678;52.052;4.242;2022-07-01T12:37:27;3.33;;;0.40;;
36691;SDS011;22678;52.052;4.242;2022-07-01T12:39:55;6.85;;;0.22;;
36691;SDS011;22678;52.052;4.242;2022-07-01T12:42:37;3.15;;;0.20;;
36691;SDS011;22678;52.052;4.242;2022-07-01T12:45:08;3.75;;;0.30;;
36691;SDS011;22678;52.052;4.242;2022-07-01T12:47:36;5.55;;;0.50;;
36691;SDS011;22678;52.052;4.242;2022-07-01T12:55:37;4.05;;;0.20;;
36691;SDS011;22678;52.052;4.242;2022-07-01T12:58:08;2.25;;;0.13;;
36691;SDS011;22678;52.052;4.242;2022-07-01T13:00:37;1.02;;;0.20;;
36691;SDS011;22678;52.052;4.242;2022-07-01T13:03:03;5.28;;;0.40;;
36691;SDS011;22678;52.052;4.242;2022-07-01T13:05:30;5.72;;;0.75;;
36691;SDS011;22678;52.052;4.242;2022-07-01T13:07:57;1.50;;;0.40;;
36691;SDS011;22678;52.052;4.242;2022-07-01T13:10:22;3.05;;;0.20;;
36691;SDS011;22678;52.052;4.242;2022-07-01T13:12:48;7.25;;;0.38;;
36691;SDS011;22678;52.052;4.242;2022-07-01T13:15:15;2.75;;;0.30;;
36691;SDS011;22678;52.052;4.242;2022-07-01T13:17:42;8.23;;;0.20;;
36691;SDS011;22678;52.052;4.242;2022-07-01T13:20:08;3.65;;;0.63;;
36691;SDS011;22678;52.052;4.242;2022-07-01T13:22:34;2.42;;;0.30;;
36691;SDS011;22678;52.052;4.242;2022-07-01T13:25:01;2.17;;;0.52;;
36691;SDS011;22678;52.052;4.242;2022-07-01T13:27:27;1.48;;;0.28;;
36691;SDS011;22678;52.052;4.242;2022-07-01T13:29:53;2.15;;;0.10;;
36691;SDS011;22678;52.052;4.242;2022-07-01T13:32:18;4.18;;;0.20;;
36691;SDS011;22678;52.052;4.242;2022-07-01T13:34:44;3.35;;;1.00;;
36691;SDS011;22678;52.052;4.242;2022-07-01T13:37:09;3.33;;;0.68;;
36691;SDS011;22678;52.052;4.242;2022-07-01T13:39:35;1.55;;;0.20;;
36691;SDS011;22678;52.052;4.242;2022-07-01T13:42:00;3.15;;;0.20;;
36691;SDS011;22678;52.052;4.242;2022-07-01T13:44:26;4.07;;;0.60;;
36691;SDS011;22678;52.052;4.242;2022-07-01T13:46:51;6.82;;;0.52;;
36691;SDS011;22678;52.052;4.242;2022-07-01T13:49:16;4.18;;;0.30;;
36691;SDS011;22678;52.052;4.242;2022-07-01T13:51:42;1.42;;;0.52;;
36691;SDS011;22678;52.052;4.242;2022-07-01T13:54:08;7.15;;;1.00;;
36691;SDS011;22678;52.052;4.242;2022-07-01T13:56:33;2.13;;;0.50;;
36691;SDS011;22678;52.052;4.242;2022-07-01T13:58:59;4.55;;;1.35;;
36691;SDS011;22678;52.052;4.242;2022-07-01T14:01:24;4.97;;;0.55;;
36691;SDS011;22678;52.052;4.242;2022-07-01T14:03:51;2.67;;;0.68;;
36691;SDS011;22678;52.052;4.242;2022-07-01T14:06:17;3.75;;;0.20;;
36691;SDS011;22678;52.052;4.242;2022-07-01T14:08:43;7.13;;;0.73;;
36691;SDS011;22678;52.052;4.242;2022-07-01T14:11:08;4.35;;;1.17;;
36691;SDS011;22678;52.052;4.242;2022-07-01T14:13:34;1.17;;;0.20;;
36691;SDS011;22678;52.052;4.242;2022-07-01T14:16:00;13.23;;;1.67;;
36691;SDS011;22678;52.052;4.242;2022-07-01T14:18:26;2.83;;;0.57;;
36691;SDS011;22678;52.052;4.242;2022-07-01T14:20:52;6.03;;;0.15;;
36691;SDS011;22678;52.052;4.242;2022-07-01T14:23:17;1.75;;;0.10;;
36691;SDS011;22678;52.052;4.242;2022-07-01T14:25:42;3.88;;;0.10;;
36691;SDS011;22678;52.052;4.242;2022-07-01T14:28:10;3.30;;;0.10;;
36691;SDS011;22678;52.052;4.242;2022-07-01T14:30:36;2.03;;;0.70;;
36691;SDS011;22678;52.052;4.242;2022-07-01T14:33:01;2.35;;;0.20;;
36691;SDS011;22678;52.052;4.242;2022-07-01T14:35:27;3.28;;;0.30;;
36691;SDS011;22678;52.052;4.242;2022-07-01T14:37:52;3.05;;;1.27;;
36691;SDS011;22678;52.052;4.242;2022-07-01T14:40:18;2.05;;;0.40;;
36691;SDS011;22678;52.052;4.242;2022-07-01T14:42:43;2.60;;;0.20;;
36691;SDS011;22678;52.052;4.242;2022-07-01T14:45:10;2.53;;;0.22;;
36691;SDS011;22678;52.052;4.242;2022-07-01T14:47:38;1.52;;;0.28;;
36691;SDS011;22678;52.052;4.242;2022-07-01T14:50:05;2.70;;;0.20;;
36691;SDS011;22678;52.052;4.242;2022-07-01T14:52:30;4.05;;;0.28;;
36691;SDS011;22678;52.052;4.242;2022-07-01T14:54:56;1.73;;;0.10;;
36691;SDS011;22678;52.052;4.242;2022-07-01T14:57:21;5.50;;;0.47;;
36691;SDS011;22678;52.052;4.242;2022-07-01T14:59:46;5.20;;;0.40;;
36691;SDS011;22678;52.052;4.242;2022-07-01T15:02:12;2.85;;;0.40;;
36691;SDS011;22678;52.052;4.242;2022-07-01T15:04:37;4.35;;;0.70;;
36691;SDS011;22678;52.052;4.242;2022-07-01T15:07:05;6.13;;;0.90;;
36691;SDS011;22678;52.052;4.242;2022-07-01T15:09:30;2.90;;;0.52;;
36691;SDS011;22678;52.052;4.242;2022-07-01T15:11:56;2.45;;;0.20;;
36691;SDS011;22678;52.052;4.242;2022-07-01T15:14:21;1.45;;;0.20;;
36691;SDS011;22678;52.052;4.242;2022-07-01T15:16:47;5.15;;;0.35;;